createdAt,value
2022-09-02T00:00:18.189Z,1013.24
2022-09-02T00:00:49.531Z,1013.24
2022-09-02T00:01:19.987Z,1013.34
2022-09-02T00:01:53.227Z,1013.34
2022-09-02T00:02:27.041Z,1013.34
2022-09-02T00:02:53.795Z,1013.34
2022-09-02T00:03:13.301Z,1013.34
2022-09-02T00:03:46.038Z,1013.34
2022-09-02T00:04:17.351Z,1013.34
2022-09-02T00:04:50.218Z,1013.34
2022-09-02T00:05:20.210Z,1013.24
2022-09-02T00:05:53.340Z,1013.24
2022-09-02T00:06:25.555Z,1013.34
2022-09-02T00:06:47.870Z,1013.34
2022-09-02T00:07:12.956Z,1013.34
2022-09-02T00:07:46.433Z,1013.34
2022-09-02T00:08:18.249Z,1013.14
2022-09-02T00:08:49.244Z,1013.14
2022-09-02T00:09:24.046Z,1013.34
2022-09-02T00:09:53.209Z,1013.34
2022-09-02T00:10:25.364Z,1013.24
2022-09-02T00:10:48.133Z,1013.41
2022-09-02T00:11:10.652Z,1013.41
2022-09-02T00:11:45.777Z,1013.41
2022-09-02T00:12:17.682Z,1013.34
2022-09-02T00:12:50.079Z,1013.34
2022-09-02T00:13:20.743Z,1013.24
2022-09-02T00:13:53.429Z,1013.24
2022-09-02T00:14:25.261Z,1013.24
2022-09-02T00:14:47.758Z,1013.24
2022-09-02T00:15:11.240Z,1013.24
2022-09-02T00:15:45.197Z,1013.24
2022-09-02T00:16:17.536Z,1013.41
2022-09-02T00:16:49.909Z,1013.41
2022-09-02T00:17:19.807Z,1013.34
2022-09-02T00:17:53.509Z,1013.34
2022-09-02T00:18:25.854Z,1013.24
2022-09-02T00:18:48.567Z,1013.34
2022-09-02T00:19:11.232Z,1013.34
2022-09-02T00:19:45.975Z,1013.34
2022-09-02T00:20:18.214Z,1013.34
2022-09-02T00:20:52.922Z,1013.24
2022-09-02T00:21:15.426Z,1013.24
2022-09-02T00:21:53.481Z,1013.24
2022-09-02T00:22:28.697Z,1013.34
2022-09-02T00:22:48.113Z,1013.14
2022-09-02T00:23:10.261Z,1013.14
2022-09-02T00:23:45.170Z,1013.14
2022-09-02T00:24:17.074Z,1013.34
2022-09-02T00:24:49.168Z,1013.34
2022-09-02T00:25:19.728Z,1013.24
2022-09-02T00:25:53.171Z,1013.24
2022-09-02T00:26:30.767Z,1013.41
2022-09-02T00:26:49.681Z,1013.24
2022-09-02T00:27:10.455Z,1013.24
2022-09-02T00:27:45.669Z,1013.24
2022-09-02T00:28:17.147Z,1013.04
2022-09-02T00:28:55.774Z,1013.04
2022-09-02T00:29:19.989Z,1013.34
2022-09-02T00:29:53.197Z,1013.34
2022-09-02T00:30:28.629Z,1013.24
2022-09-02T00:30:47.923Z,1013.24
2022-09-02T00:31:10.616Z,1013.24
2022-09-02T00:31:45.251Z,1013.24
2022-09-02T00:32:17.629Z,1013.24
2022-09-02T00:32:49.171Z,1013.24
2022-09-02T00:33:19.745Z,1013.24
2022-09-02T00:33:53.329Z,1013.24
2022-09-02T00:34:25.017Z,1013.34
2022-09-02T00:34:47.922Z,1013.14
2022-09-02T00:35:10.725Z,1013.14
2022-09-02T00:35:45.250Z,1013.14
2022-09-02T00:36:17.131Z,1013.04
2022-09-02T00:36:49.171Z,1013.04
2022-09-02T00:37:19.993Z,1013.14
2022-09-02T00:37:53.287Z,1013.14
2022-09-02T00:38:25.159Z,1013.34
2022-09-02T00:38:48.154Z,1013.14
2022-09-02T00:39:10.201Z,1013.14
2022-09-02T00:39:45.235Z,1013.14
2022-09-02T00:40:17.702Z,1013.04
2022-09-02T00:40:49.162Z,1013.04
2022-09-02T00:41:19.740Z,1013.14
2022-09-02T00:41:54.031Z,1013.14
2022-09-02T00:42:25.168Z,1013.04
2022-09-02T00:42:51.827Z,1013.04
2022-09-02T00:43:29.319Z,1013.04
2022-09-02T00:43:52.729Z,1013.14
2022-09-02T00:44:15.021Z,1013.14
2022-09-02T00:44:48.988Z,1013.14
2022-09-02T00:45:19.758Z,1013.04
2022-09-02T00:45:53.267Z,1013.04
2022-09-02T00:46:25.132Z,1013.04
2022-09-02T00:46:47.816Z,1013.04
2022-09-02T00:47:10.760Z,1013.04
2022-09-02T00:47:45.054Z,1013.04
2022-09-02T00:48:17.546Z,1013.24
2022-09-02T00:48:49.396Z,1013.24
2022-09-02T00:49:19.748Z,1013.14
2022-09-02T00:49:53.259Z,1013.14
2022-09-02T00:50:25.141Z,1013.04
2022-09-02T00:50:48.625Z,1013.04
2022-09-02T00:51:10.512Z,1013.04
2022-09-02T00:51:45.093Z,1013.04
2022-09-02T00:52:17.246Z,1013.14
2022-09-02T00:52:49.071Z,1013.14
2022-09-02T00:53:19.950Z,1013.04
2022-09-02T00:53:53.038Z,1013.04
2022-09-02T00:54:25.120Z,1013.24
2022-09-02T00:54:48.115Z,1013.14
2022-09-02T00:55:10.441Z,1013.14
2022-09-02T00:55:45.395Z,1013.14
2022-09-02T00:56:17.161Z,1012.93
2022-09-02T00:56:48.985Z,1012.93
2022-09-02T00:57:21.341Z,1012.93
2022-09-02T00:57:53.155Z,1012.93
2022-09-02T00:58:25.355Z,1013.14
2022-09-02T00:58:48.344Z,1013.14
2022-09-02T00:59:10.637Z,1013.14
2022-09-02T00:59:46.505Z,1013.14
2022-09-02T01:00:17.114Z,1013.04
2022-09-02T01:00:49.211Z,1013.04
2022-09-02T01:01:19.959Z,1013.04
2022-09-02T01:01:53.105Z,1013.04
2022-09-02T01:02:25.160Z,1013.14
2022-09-02T01:02:58.821Z,1013.14
2022-09-02T01:03:10.623Z,1013.14
2022-09-02T01:03:46.620Z,1013.14
2022-09-02T01:04:16.992Z,1013.04
2022-09-02T01:04:50.622Z,1013.04
2022-09-02T01:05:19.723Z,1013.24
2022-09-02T01:05:53.050Z,1013.24
2022-09-02T01:06:25.148Z,1013.14
2022-09-02T01:06:54.192Z,1012.83
2022-09-02T01:07:13.104Z,1012.83
2022-09-02T01:07:45.139Z,1012.83
2022-09-02T01:08:18.490Z,1013.04
2022-09-02T01:08:49.117Z,1013.04
2022-09-02T01:09:19.858Z,1012.93
2022-09-02T01:09:54.517Z,1012.93
2022-09-02T01:10:24.985Z,1012.93
2022-09-02T01:10:47.674Z,1013.04
2022-09-02T01:11:10.167Z,1013.04
2022-09-02T01:11:45.165Z,1013.04
2022-09-02T01:12:17.154Z,1012.93
2022-09-02T01:12:48.978Z,1012.93
2022-09-02T01:13:19.828Z,1012.93
2022-09-02T01:13:53.470Z,1012.93
2022-09-02T01:14:28.704Z,1013.04
2022-09-02T01:14:53.914Z,1013.04
2022-09-02T01:15:10.820Z,1013.04
2022-09-02T01:15:45.099Z,1013.04
2022-09-02T01:16:17.287Z,1012.93
2022-09-02T01:16:49.649Z,1012.93
2022-09-02T01:17:19.808Z,1012.93
2022-09-02T01:17:53.081Z,1012.93
2022-09-02T01:18:24.989Z,1012.93
2022-09-02T01:18:47.934Z,1013.04
2022-09-02T01:19:10.133Z,1013.04
2022-09-02T01:19:45.142Z,1013.04
2022-09-02T01:20:20.486Z,1013.04
2022-09-02T01:20:49.253Z,1013.04
2022-09-02T01:21:19.849Z,1013.14
2022-09-02T01:24:00.966Z,1012.83
2022-09-02T01:24:33.018Z,1012.83
2022-09-02T01:24:59.987Z,1012.93
2022-09-02T01:25:37.732Z,1012.93
2022-09-02T01:26:00.028Z,1012.93
2022-09-02T01:26:23.286Z,1012.93
2022-09-02T01:26:45.858Z,1013.04
2022-09-02T01:27:08.330Z,1013.04
2022-09-02T01:27:45.854Z,1013.04
2022-09-02T01:28:17.117Z,1012.83
2022-09-02T01:28:49.369Z,1012.83
2022-09-02T01:29:19.733Z,1013.04
2022-09-02T01:29:54.087Z,1013.04
2022-09-02T01:30:25.746Z,1012.93
2022-09-02T01:30:48.210Z,1012.83
2022-09-02T01:31:10.892Z,1012.83
2022-09-02T01:31:45.217Z,1012.83
2022-09-02T01:32:17.736Z,1012.93
2022-09-02T01:32:49.082Z,1012.93
2022-09-02T01:33:19.923Z,1012.93
2022-09-02T01:33:53.061Z,1012.93
2022-09-02T01:34:25.285Z,1013.04
2022-09-02T01:34:48.170Z,1013.04
2022-09-02T01:35:10.968Z,1013.04
2022-09-02T01:35:45.586Z,1013.04
2022-09-02T01:36:16.942Z,1012.93
2022-09-02T01:36:49.765Z,1012.93
2022-09-02T01:37:23.270Z,1012.93
2022-09-02T01:37:56.055Z,1012.93
2022-09-02T01:38:25.188Z,1012.93
2022-09-02T01:38:49.187Z,1012.93
2022-09-02T01:39:11.499Z,1012.93
2022-09-02T01:39:45.082Z,1012.93
2022-09-02T01:40:17.189Z,1012.83
2022-09-02T01:40:49.351Z,1012.83
2022-09-02T01:41:20.211Z,1012.73
2022-09-02T01:41:53.648Z,1012.73
2022-09-02T01:42:25.691Z,1012.93
2022-09-02T01:42:48.851Z,1013.04
2022-09-02T01:43:10.954Z,1013.04
2022-09-02T01:43:48.638Z,1012.83
2022-09-02T01:44:11.010Z,1012.83
2022-09-02T01:44:49.344Z,1012.83
2022-09-02T01:45:22.616Z,1012.83
2022-09-02T01:45:53.123Z,1012.83
2022-09-02T01:46:25.066Z,1012.93
2022-09-02T01:46:47.800Z,1012.73
2022-09-02T01:47:10.160Z,1012.73
2022-09-02T01:47:45.151Z,1012.73
2022-09-02T01:48:21.387Z,1012.93
2022-09-02T01:48:49.145Z,1012.93
2022-09-02T01:49:20.150Z,1012.83
2022-09-02T01:49:53.161Z,1012.83
2022-09-02T01:50:25.055Z,1012.73
2022-09-02T01:50:48.289Z,1012.73
2022-09-02T01:51:10.651Z,1012.73
2022-09-02T01:51:45.174Z,1012.73
2022-09-02T01:52:17.035Z,1012.73
2022-09-02T01:52:49.007Z,1012.73
2022-09-02T01:53:25.242Z,1012.93
2022-09-02T01:53:53.007Z,1012.93
2022-09-02T01:54:24.917Z,1012.83
2022-09-02T01:54:47.753Z,1012.93
2022-09-02T01:55:10.460Z,1012.93
2022-09-02T01:55:45.079Z,1012.93
2022-09-02T01:56:17.062Z,1012.83
2022-09-02T01:56:49.057Z,1012.83
2022-09-02T01:57:20.211Z,1012.73
2022-09-02T01:57:53.077Z,1012.73
2022-09-02T01:58:24.971Z,1012.63
2022-09-02T01:58:47.828Z,1012.83
2022-09-02T01:59:10.672Z,1012.83
2022-09-02T01:59:45.033Z,1012.83
2022-09-02T02:00:17.508Z,1012.73
2022-09-02T02:00:49.071Z,1012.73
2022-09-02T02:01:20.169Z,1012.73
2022-09-02T02:01:53.444Z,1012.73
2022-09-02T02:02:25.265Z,1012.83
2022-09-02T02:02:53.343Z,1012.53
2022-09-02T02:03:10.190Z,1012.53
2022-09-02T02:03:45.164Z,1012.53
2022-09-02T02:04:16.908Z,1012.83
2022-09-02T02:04:49.033Z,1012.83
2022-09-02T02:05:20.228Z,1012.73
2022-09-02T02:05:52.925Z,1012.73
2022-09-02T02:06:24.965Z,1012.73
2022-09-02T02:06:47.796Z,1012.83
2022-09-02T02:07:15.827Z,1012.83
2022-09-02T02:07:45.082Z,1012.83
2022-09-02T02:08:16.910Z,1012.83
2022-09-02T02:08:49.056Z,1012.83
2022-09-02T02:09:19.821Z,1012.53
2022-09-02T02:09:54.538Z,1012.53
2022-09-02T02:10:25.059Z,1012.73
2022-09-02T02:10:48.420Z,1012.53
2022-09-02T02:11:11.273Z,1012.53
2022-09-02T02:11:44.945Z,1012.53
2022-09-02T02:12:17.020Z,1012.63
2022-09-02T02:12:49.009Z,1012.63
2022-09-02T02:13:19.858Z,1012.43
2022-09-02T02:13:53.196Z,1012.43
2022-09-02T02:14:25.514Z,1012.63
2022-09-02T02:14:48.512Z,1012.53
2022-09-02T02:15:11.060Z,1012.53
2022-09-02T02:15:45.005Z,1012.53
2022-09-02T02:16:17.245Z,1012.53
2022-09-02T02:16:48.919Z,1012.53
2022-09-02T02:17:24.233Z,1012.73
2022-09-02T02:17:53.031Z,1012.73
2022-09-02T02:18:25.032Z,1012.53
2022-09-02T02:18:47.722Z,1012.63
2022-09-02T02:19:10.182Z,1012.63
2022-09-02T02:19:44.994Z,1012.63
2022-09-02T02:20:17.137Z,1012.63
2022-09-02T02:20:50.467Z,1012.63
2022-09-02T02:21:20.055Z,1012.73
2022-09-02T02:21:52.973Z,1012.73
2022-09-02T02:22:24.988Z,1012.63
2022-09-02T02:22:50.672Z,1012.43
2022-09-02T02:23:10.503Z,1012.43
2022-09-02T02:23:44.929Z,1012.43
2022-09-02T02:24:17.518Z,1012.73
2022-09-02T02:24:49.162Z,1012.73
2022-09-02T02:25:20.273Z,1012.63
2022-09-02T02:26:03.471Z,1012.63
2022-09-02T02:26:26.398Z,1012.63
2022-09-02T02:26:48.214Z,1012.63
2022-09-02T02:27:10.023Z,1012.63
2022-09-02T02:27:45.086Z,1012.63
2022-09-02T02:28:16.899Z,1012.43
2022-09-02T02:28:49.036Z,1012.43
2022-09-02T02:29:19.887Z,1012.43
2022-09-02T02:29:58.577Z,1012.43
2022-09-02T02:30:25.070Z,1012.73
2022-09-02T02:30:48.618Z,1012.63
2022-09-02T02:31:10.981Z,1012.63
2022-09-02T02:31:45.079Z,1012.63
2022-09-02T02:32:17.082Z,1012.53
2022-09-02T02:32:48.931Z,1012.53
2022-09-02T02:33:19.780Z,1012.63
2022-09-02T02:33:52.930Z,1012.63
2022-09-02T02:34:25.081Z,1012.53
2022-09-02T02:34:48.890Z,1012.73
2022-09-02T02:35:11.321Z,1012.73
2022-09-02T02:35:45.052Z,1012.73
2022-09-02T02:36:16.905Z,1012.43
2022-09-02T02:36:49.108Z,1012.43
2022-09-02T02:37:24.766Z,1012.73
2022-09-02T02:37:57.481Z,1012.73
2022-09-02T02:38:24.965Z,1012.73
2022-09-02T02:38:48.360Z,1012.63
2022-09-02T02:39:10.631Z,1012.63
2022-09-02T02:39:45.818Z,1012.63
2022-09-02T02:40:17.028Z,1012.53
2022-09-02T02:40:49.196Z,1012.53
2022-09-02T02:41:20.927Z,1012.53
2022-09-02T02:41:53.120Z,1012.53
2022-09-02T02:42:24.865Z,1012.33
2022-09-02T02:42:48.202Z,1012.43
2022-09-02T02:43:10.496Z,1012.43
2022-09-02T02:43:45.006Z,1012.43
2022-09-02T02:44:17.509Z,1012.53
2022-09-02T02:44:48.998Z,1012.53
2022-09-02T02:45:19.770Z,1012.53
2022-09-02T02:45:52.938Z,1012.53
2022-09-02T02:46:25.174Z,1012.63
2022-09-02T02:46:48.866Z,1012.33
2022-09-02T02:47:11.169Z,1012.33
2022-09-02T02:47:44.962Z,1012.33
2022-09-02T02:48:16.952Z,1012.43
2022-09-02T02:48:49.354Z,1012.43
2022-09-02T02:49:19.726Z,1012.43
2022-09-02T02:49:52.997Z,1012.43
2022-09-02T02:50:25.009Z,1012.53
2022-09-02T02:50:47.725Z,1012.43
2022-09-02T02:51:09.996Z,1012.43
2022-09-02T02:51:45.136Z,1012.43
2022-09-02T02:52:17.058Z,1012.33
2022-09-02T02:52:48.867Z,1012.33
2022-09-02T02:53:23.353Z,1012.33
2022-09-02T02:53:55.734Z,1012.33
2022-09-02T02:54:34.746Z,1012.43
2022-09-02T02:54:48.695Z,1012.63
2022-09-02T02:55:11.109Z,1012.63
2022-09-02T02:55:45.108Z,1012.63
2022-09-02T02:56:16.979Z,1012.43
2022-09-02T02:56:49.081Z,1012.43
2022-09-02T02:57:19.766Z,1012.53
2022-09-02T02:57:52.918Z,1012.53
2022-09-02T02:58:24.881Z,1012.33
2022-09-02T02:58:48.758Z,1012.43
2022-09-02T02:59:11.057Z,1012.43
2022-09-02T02:59:48.353Z,1012.43
2022-09-02T03:00:17.376Z,1012.43
2022-09-02T03:00:50.893Z,1012.43
2022-09-02T03:01:19.889Z,1012.43
2022-09-02T03:01:53.108Z,1012.43
2022-09-02T03:02:25.126Z,1012.63
2022-09-02T03:02:53.563Z,1012.53
2022-09-02T03:03:10.507Z,1012.53
2022-09-02T03:03:44.897Z,1012.53
2022-09-02T03:04:17.131Z,1012.53
2022-09-02T03:04:48.883Z,1012.53
2022-09-02T03:05:19.737Z,1012.53
2022-09-02T03:05:57.492Z,1012.53
2022-09-02T03:06:26.549Z,1012.43
2022-09-02T03:06:47.684Z,1012.53
2022-09-02T03:07:10.318Z,1012.53
2022-09-02T03:07:45.094Z,1012.53
2022-09-02T03:08:16.977Z,1012.53
2022-09-02T03:08:48.984Z,1012.53
2022-09-02T03:09:20.157Z,1012.63
2022-09-02T03:09:52.947Z,1012.63
2022-09-02T03:10:24.943Z,1012.22
2022-09-02T03:10:48.645Z,1012.53
2022-09-02T03:11:10.513Z,1012.53
2022-09-02T03:11:45.000Z,1012.53
2022-09-02T03:12:17.005Z,1012.22
2022-09-02T03:12:49.293Z,1012.22
2022-09-02T03:13:19.947Z,1012.43
2022-09-02T03:13:53.264Z,1012.43
2022-09-02T03:14:24.863Z,1012.33
2022-09-02T03:14:47.533Z,1012.63
2022-09-02T03:15:10.071Z,1012.63
2022-09-02T03:15:45.013Z,1012.63
2022-09-02T03:16:17.023Z,1012.43
2022-09-02T03:16:48.973Z,1012.43
2022-09-02T03:17:19.773Z,1012.53
2022-09-02T03:17:53.346Z,1012.53
2022-09-02T03:18:25.351Z,1012.43
2022-09-02T03:18:47.635Z,1012.53
2022-09-02T03:19:10.117Z,1012.53
2022-09-02T03:19:45.278Z,1012.53
2022-09-02T03:20:17.119Z,1012.43
2022-09-02T03:20:50.333Z,1012.43
2022-09-02T03:21:19.818Z,1012.53
2022-09-02T03:21:53.026Z,1012.53
2022-09-02T03:22:24.997Z,1012.53
2022-09-02T03:22:47.823Z,1012.53
2022-09-02T03:23:10.155Z,1012.53
2022-09-02T03:23:44.997Z,1012.53
2022-09-02T03:24:18.605Z,1012.33
2022-09-02T03:24:49.106Z,1012.33
2022-09-02T03:25:19.965Z,1012.43
2022-09-02T03:25:52.936Z,1012.43
2022-09-02T03:26:30.500Z,1012.12
2022-09-02T03:26:48.845Z,1012.43
2022-09-02T03:27:11.021Z,1012.43
2022-09-02T03:27:45.084Z,1012.43
2022-09-02T03:28:16.973Z,1012.43
2022-09-02T03:28:48.952Z,1012.43
2022-09-02T03:29:19.714Z,1012.53
2022-09-02T03:29:52.971Z,1012.53
2022-09-02T03:30:24.898Z,1012.33
2022-09-02T03:30:47.557Z,1012.22
2022-09-02T03:31:09.881Z,1012.22
2022-09-02T03:31:44.989Z,1012.22
2022-09-02T03:32:17.059Z,1012.43
2022-09-02T03:32:48.904Z,1012.43
2022-09-02T03:33:19.867Z,1012.43
2022-09-02T03:33:53.097Z,1012.43
2022-09-02T03:34:24.944Z,1012.43
2022-09-02T03:34:47.904Z,1012.33
2022-09-02T03:35:10.261Z,1012.33
2022-09-02T03:35:44.879Z,1012.33
2022-09-02T03:36:16.964Z,1012.43
2022-09-02T03:36:48.830Z,1012.43
2022-09-02T03:37:19.829Z,1012.43
2022-09-02T03:37:52.850Z,1012.43
2022-09-02T03:38:24.982Z,1012.53
2022-09-02T03:38:47.805Z,1012.43
2022-09-02T03:39:10.308Z,1012.43
2022-09-02T03:39:44.831Z,1012.43
2022-09-02T03:40:16.978Z,1012.33
2022-09-02T03:40:49.042Z,1012.33
2022-09-02T03:41:19.817Z,1012.22
2022-09-02T03:41:53.343Z,1012.22
2022-09-02T03:42:24.821Z,1012.22
2022-09-02T03:42:48.109Z,1012.43
2022-09-02T03:43:10.513Z,1012.43
2022-09-02T03:43:45.276Z,1012.43
2022-09-02T03:44:16.898Z,1012.22
2022-09-02T03:44:48.974Z,1012.22
2022-09-02T03:45:19.888Z,1012.33
2022-09-02T03:45:53.006Z,1012.33
2022-09-02T03:46:25.318Z,1012.43
2022-09-02T03:46:47.531Z,1012.53
2022-09-02T03:47:09.947Z,1012.53
2022-09-02T03:47:45.232Z,1012.53
2022-09-02T03:48:16.813Z,1012.43
2022-09-02T03:48:49.008Z,1012.43
2022-09-02T03:49:19.938Z,1012.22
2022-09-02T03:49:52.985Z,1012.22
2022-09-02T03:50:24.962Z,1012.22
2022-09-02T03:50:47.648Z,1012.33
2022-09-02T03:51:10.038Z,1012.33
2022-09-02T03:51:44.830Z,1012.33
2022-09-02T03:52:13.105Z,1012.43
2022-09-02T03:52:49.540Z,1012.43
2022-09-02T03:53:20.643Z,1012.53
2022-09-02T03:53:53.101Z,1012.53
2022-09-02T03:54:28.562Z,1012.33
2022-09-02T03:54:49.637Z,1012.33
2022-09-02T03:55:12.002Z,1012.33
2022-09-02T03:55:45.361Z,1012.33
2022-09-02T03:56:18.917Z,1012.33
2022-09-02T03:56:48.936Z,1012.33
2022-09-02T03:57:19.831Z,1012.12
2022-09-02T03:57:53.160Z,1012.12
2022-09-02T03:58:24.963Z,1012.22
2022-09-02T03:58:48.103Z,1012.33
2022-09-02T03:59:10.337Z,1012.33
2022-09-02T03:59:45.959Z,1012.33
2022-09-02T04:00:17.957Z,1012.22
2022-09-02T04:00:49.262Z,1012.22
2022-09-02T04:01:20.062Z,1012.33
2022-09-02T04:01:53.106Z,1012.33
2022-09-02T04:02:26.694Z,1012.22
2022-09-02T04:02:54.735Z,1012.33
2022-09-02T04:03:13.115Z,1012.33
2022-09-02T04:03:45.409Z,1012.33
2022-09-02T04:04:22.206Z,1012.22
2022-09-02T04:04:49.345Z,1012.22
2022-09-02T04:05:19.955Z,1012.02
2022-09-02T04:05:53.051Z,1012.02
2022-09-02T04:06:24.942Z,1012.02
2022-09-02T04:06:47.693Z,1012.33
2022-09-02T04:07:11.798Z,1012.33
2022-09-02T04:07:46.986Z,1012.33
2022-09-02T04:08:17.822Z,1012.22
2022-09-02T04:08:48.861Z,1012.22
2022-09-02T04:09:19.938Z,1012.33
2022-09-02T04:09:52.945Z,1012.33
2022-09-02T04:10:25.031Z,1012.02
2022-09-02T04:10:47.734Z,1012.33
2022-09-02T04:11:10.268Z,1012.33
2022-09-02T04:11:45.362Z,1012.33
2022-09-02T04:12:16.967Z,1012.33
2022-09-02T04:12:49.635Z,1012.33
2022-09-02T04:13:20.548Z,1012.12
2022-09-02T04:13:53.563Z,1012.12
2022-09-02T04:14:32.549Z,1012.22
2022-09-02T04:14:48.819Z,1012.33
2022-09-02T04:15:11.629Z,1012.33
2022-09-02T04:15:45.247Z,1012.33
2022-09-02T04:16:17.688Z,1012.12
2022-09-02T04:16:49.280Z,1012.12
2022-09-02T04:17:20.176Z,1012.33
2022-09-02T04:17:53.629Z,1012.33
2022-09-02T04:18:25.872Z,1012.22
2022-09-02T04:18:48.609Z,1012.33
2022-09-02T04:19:12.499Z,1012.33
2022-09-02T04:19:45.705Z,1012.33
2022-09-02T04:20:17.807Z,1012.22
2022-09-02T04:20:52.700Z,1012.12
2022-09-02T04:21:15.305Z,1012.12
2022-09-02T04:21:53.594Z,1012.12
2022-09-02T04:22:25.171Z,1012.12
2022-09-02T04:22:48.125Z,1012.33
2022-09-02T04:23:13.901Z,1012.33
2022-09-02T04:23:45.036Z,1012.33
2022-09-02T04:24:17.415Z,1012.12
2022-09-02T04:24:49.155Z,1012.12
2022-09-02T04:25:19.878Z,1012.22
2022-09-02T04:25:56.510Z,1012.22
2022-09-02T04:26:30.736Z,1012.12
2022-09-02T04:26:49.939Z,1012.12
2022-09-02T04:27:12.464Z,1012.12
2022-09-02T04:27:45.204Z,1012.12
2022-09-02T04:28:17.063Z,1012.12
2022-09-02T04:28:49.086Z,1012.12
2022-09-02T04:29:19.793Z,1012.33
2022-09-02T04:29:53.021Z,1012.33
2022-09-02T04:30:25.061Z,1012.12
2022-09-02T04:30:47.639Z,1012.12
2022-09-02T04:31:09.967Z,1012.12
2022-09-02T04:31:45.218Z,1012.12
2022-09-02T04:32:17.033Z,1012.22
2022-09-02T04:32:49.355Z,1012.22
2022-09-02T04:33:19.870Z,1012.22
2022-09-02T04:33:52.958Z,1012.22
2022-09-02T04:34:25.022Z,1012.22
2022-09-02T04:34:47.914Z,1012.12
2022-09-02T04:35:10.335Z,1012.12
2022-09-02T04:35:45.256Z,1012.12
2022-09-02T04:36:16.970Z,1011.92
2022-09-02T04:36:49.435Z,1011.92
2022-09-02T04:37:19.926Z,1012.12
2022-09-02T04:37:53.098Z,1012.12
2022-09-02T04:38:25.356Z,1012.12
2022-09-02T04:38:48.356Z,1012.12
2022-09-02T04:39:10.370Z,1012.12
2022-09-02T04:39:44.931Z,1012.12
2022-09-02T04:40:17.092Z,1012.33
2022-09-02T04:40:48.949Z,1012.33
2022-09-02T04:41:20.014Z,1012.12
2022-09-02T04:41:53.606Z,1012.12
2022-09-02T04:42:24.920Z,1012.02
2022-09-02T04:42:48.348Z,1012.22
2022-09-02T04:43:10.582Z,1012.22
2022-09-02T04:43:45.531Z,1012.22
2022-09-02T04:44:17.276Z,1012.12
2022-09-02T04:44:49.380Z,1012.12
2022-09-02T04:45:19.903Z,1012.33
2022-09-02T04:45:53.091Z,1012.33
2022-09-02T04:46:34.734Z,1012.33
2022-09-02T04:46:48.270Z,1012.22
2022-09-02T04:47:10.652Z,1012.22
2022-09-02T04:47:45.258Z,1012.22
2022-09-02T04:48:16.969Z,1012.12
2022-09-02T04:48:48.999Z,1012.12
2022-09-02T04:49:20.661Z,1012.33
2022-09-02T04:49:53.071Z,1012.33
2022-09-02T04:50:25.011Z,1012.22
2022-09-02T04:50:47.818Z,1012.43
2022-09-02T04:51:10.284Z,1012.43
2022-09-02T04:51:45.156Z,1012.43
2022-09-02T04:52:13.974Z,1012.33
2022-09-02T04:52:49.171Z,1012.33
2022-09-02T04:53:20.269Z,1012.33
2022-09-02T04:53:53.445Z,1012.33
2022-09-02T04:54:26.705Z,1012.33
2022-09-02T04:54:49.516Z,1012.22
2022-09-02T04:55:12.207Z,1012.22
2022-09-02T04:55:45.337Z,1012.22
2022-09-02T04:56:17.041Z,1012.12
2022-09-02T04:56:50.815Z,1012.12
2022-09-02T04:57:20.265Z,1012.33
2022-09-02T04:57:52.932Z,1012.33
2022-09-02T04:58:25.206Z,1012.02
2022-09-02T04:58:47.977Z,1012.43
2022-09-02T04:59:10.216Z,1012.43
2022-09-02T04:59:46.126Z,1012.43
2022-09-02T05:00:17.417Z,1012.33
2022-09-02T05:00:49.275Z,1012.33
2022-09-02T05:01:22.735Z,1012.12
2022-09-02T05:01:53.352Z,1012.12
2022-09-02T05:02:25.408Z,1012.22
2022-09-02T05:02:53.250Z,1012.12
2022-09-02T05:03:14.223Z,1012.12
2022-09-02T05:03:45.989Z,1012.12
2022-09-02T05:04:16.945Z,1012.33
2022-09-02T05:04:49.921Z,1012.33
2022-09-02T05:05:20.058Z,1012.02
2022-09-02T05:05:53.204Z,1012.02
2022-09-02T05:06:25.026Z,1012.22
2022-09-02T05:06:47.949Z,1012.22
2022-09-02T05:07:10.809Z,1012.22
2022-09-02T05:07:45.139Z,1012.22
2022-09-02T05:08:17.134Z,1012.22
2022-09-02T05:08:49.573Z,1012.22
2022-09-02T05:09:20.063Z,1012.22
2022-09-02T05:09:53.189Z,1012.22
2022-09-02T05:10:25.321Z,1012.22
2022-09-02T05:10:48.050Z,1012.12
2022-09-02T05:11:10.439Z,1012.12
2022-09-02T05:11:50.574Z,1012.12
2022-09-02T05:12:17.241Z,1012.22
2022-09-02T05:12:49.657Z,1012.22
2022-09-02T05:13:20.140Z,1012.02
2022-09-02T05:13:53.107Z,1012.02
2022-09-02T05:14:25.276Z,1012.12
2022-09-02T05:14:47.803Z,1012.22
2022-09-02T05:15:10.412Z,1012.22
2022-09-02T05:15:45.131Z,1012.22
2022-09-02T05:16:18.230Z,1012.02
2022-09-02T05:16:49.354Z,1012.02
2022-09-02T05:17:20.306Z,1012.33
2022-09-02T05:17:53.685Z,1012.33
2022-09-02T05:18:25.421Z,1012.22
2022-09-02T05:18:47.933Z,1011.92
2022-09-02T05:19:10.649Z,1011.92
2022-09-02T05:19:45.668Z,1011.92
2022-09-02T05:20:17.437Z,1012.02
2022-09-02T05:20:49.368Z,1012.02
2022-09-02T05:21:23.069Z,1012.12
2022-09-02T05:21:53.905Z,1012.12
2022-09-02T05:22:25.036Z,1011.92
2022-09-02T05:22:47.969Z,1012.12
2022-09-02T05:23:11.444Z,1012.12
2022-09-02T05:23:47.855Z,1012.12
2022-09-02T05:24:25.812Z,1012.02
2022-09-02T05:24:43.516Z,1012.02
2022-09-02T05:25:20.175Z,1012.22
2022-09-02T05:25:49.593Z,1012.22
2022-09-02T05:26:20.120Z,1012.22
2022-09-02T05:26:51.861Z,1012.12
2022-09-02T05:27:29.106Z,1012.12
2022-09-02T05:27:51.853Z,1012.22
2022-09-02T05:28:14.268Z,1012.22
2022-09-02T05:28:48.960Z,1012.22
2022-09-02T05:29:20.091Z,1012.22
2022-09-02T05:29:52.793Z,1012.22
2022-09-02T05:30:24.952Z,1011.92
2022-09-02T05:30:47.733Z,1012.12
2022-09-02T05:31:10.175Z,1012.12
2022-09-02T05:31:44.909Z,1012.12
2022-09-02T05:32:17.101Z,1012.22
2022-09-02T05:32:48.839Z,1012.22
2022-09-02T05:33:19.958Z,1012.12
2022-09-02T05:33:53.119Z,1012.12
2022-09-02T05:34:25.169Z,1012.12
2022-09-02T05:34:48.166Z,1012.02
2022-09-02T05:35:10.540Z,1012.02
2022-09-02T05:35:45.435Z,1012.02
2022-09-02T05:36:16.944Z,1012.12
2022-09-02T05:36:49.035Z,1012.12
2022-09-02T05:37:19.941Z,1012.12
2022-09-02T05:37:56.283Z,1012.12
2022-09-02T05:38:24.965Z,1012.22
2022-09-02T05:38:47.670Z,1012.22
2022-09-02T05:39:10.071Z,1012.22
2022-09-02T05:39:44.899Z,1012.22
2022-09-02T05:40:17.122Z,1012.22
2022-09-02T05:40:49.073Z,1012.22
2022-09-02T05:41:19.900Z,1012.33
2022-09-02T05:41:52.993Z,1012.33
2022-09-02T05:42:24.966Z,1012.12
2022-09-02T05:42:49.396Z,1012.22
2022-09-02T05:43:11.630Z,1012.22
2022-09-02T05:43:44.856Z,1012.22
2022-09-02T05:44:16.919Z,1012.12
2022-09-02T05:44:48.859Z,1012.12
2022-09-02T05:45:19.957Z,1012.02
2022-09-02T05:45:53.514Z,1012.02
2022-09-02T05:46:19.506Z,1012.12
2022-09-02T05:46:51.472Z,1012.02
2022-09-02T05:47:29.357Z,1012.02
2022-09-02T05:47:52.577Z,1012.22
2022-09-02T05:48:14.889Z,1012.22
2022-09-02T05:48:48.946Z,1012.22
2022-09-02T05:49:19.837Z,1012.12
2022-09-02T05:49:52.834Z,1012.12
2022-09-02T05:50:24.787Z,1011.92
2022-09-02T05:50:47.589Z,1011.92
2022-09-02T05:51:10.328Z,1011.92
2022-09-02T05:51:44.993Z,1011.92
2022-09-02T05:52:11.303Z,1012.43
2022-09-02T05:52:49.645Z,1012.43
2022-09-02T05:53:20.249Z,1012.02
2022-09-02T05:53:53.055Z,1012.02
2022-09-02T05:54:25.797Z,1012.22
2022-09-02T05:54:51.975Z,1012.02
2022-09-02T05:55:11.252Z,1012.02
2022-09-02T05:55:45.272Z,1012.02
2022-09-02T05:56:16.957Z,1012.12
2022-09-02T05:56:49.041Z,1012.12
2022-09-02T05:57:20.985Z,1012.22
2022-09-02T05:57:53.569Z,1012.22
2022-09-02T05:58:26.389Z,1012.12
2022-09-02T05:58:47.788Z,1012.22
2022-09-02T05:59:11.029Z,1012.22
2022-09-02T05:59:45.026Z,1012.22
2022-09-02T06:00:18.659Z,1011.92
2022-09-02T06:00:48.816Z,1011.92
2022-09-02T06:01:20.528Z,1012.12
2022-09-02T06:01:53.647Z,1012.12
2022-09-02T06:02:25.329Z,1012.22
2022-09-02T06:02:54.468Z,1012.12
2022-09-02T06:03:17.342Z,1012.12
2022-09-02T06:03:39.950Z,1012.12
2022-09-02T06:04:17.244Z,1012.12
2022-09-02T06:04:48.949Z,1012.12